In Rescue
 
Open Full Screen Window  High Contrast Mode
Wind Gusting 17 knots
11
April 20, 2024 8:39 AM EDT
Weather Information
Wind Direction
  290 °
Wind Speed
  11 kt (13 mph)
Wind Gust
  17 kt (20 mph)
Altimeter
29.99 in
Visibility
10 SM
Temperature
02° C
36° F
Dewpoint
-04° C
25° F
Humidity
64%
Sky Condition
Scattered @ 7,000 ft
VFR

METAR KISQ 201239Z AUTO 29011G17KT 10SM SCT070 02/M04 A2999 RMK AO2 T00171044

FAA Disclaimer: The data displayed is for advisory purposes only and is not to be used for flight planning or operations.